createdAt,value
2023-03-30T00:00:42.863Z,16.73
2023-03-30T00:06:39.153Z,14.53
2023-03-30T00:12:33.985Z,14.60
2023-03-30T00:18:27.413Z,14.27
2023-03-30T00:24:20.833Z,15.37
2023-03-30T00:30:18.086Z,13.10
2023-03-30T00:36:11.210Z,14.73
2023-03-30T00:42:04.664Z,16.07
2023-03-30T00:48:06.238Z,13.57
2023-03-30T00:54:05.394Z,14.37
2023-03-30T00:59:58.778Z,14.30
2023-03-30T01:05:56.418Z,14.23
2023-03-30T01:11:50.117Z,14.83
2023-03-30T01:18:04.829Z,13.20
2023-03-30T01:24:43.091Z,14.17
2023-03-30T01:30:55.955Z,14.10
2023-03-30T01:37:19.054Z,13.57
2023-03-30T01:43:19.674Z,12.73
2023-03-30T01:49:18.483Z,13.20
2023-03-30T01:55:16.613Z,13.13
2023-03-30T02:01:13.540Z,13.80
2023-03-30T02:07:11.887Z,14.10
2023-03-30T02:13:07.745Z,13.90
2023-03-30T02:19:02.908Z,13.87
2023-03-30T02:24:58.297Z,14.03
2023-03-30T02:30:51.953Z,14.77
2023-03-30T02:37:04.444Z,14.70
2023-03-30T02:43:08.538Z,14.87
2023-03-30T02:49:14.273Z,15.43
2023-03-30T02:55:20.269Z,14.07
2023-03-30T03:01:19.820Z,15.40
2023-03-30T03:07:22.023Z,15.00
2023-03-30T03:13:17.473Z,15.43
2023-03-30T03:19:11.762Z,15.27
2023-03-30T03:25:07.223Z,13.97
2023-03-30T03:31:16.072Z,13.73
2023-03-30T03:37:11.078Z,14.20
2023-03-30T03:43:04.321Z,13.63
2023-03-30T03:49:00.559Z,14.80
2023-03-30T03:54:54.542Z,13.63
2023-03-30T04:00:48.595Z,14.97
2023-03-30T04:06:43.429Z,13.80
2023-03-30T04:12:36.893Z,14.50
2023-03-30T04:18:50.173Z,12.97
2023-03-30T04:24:56.842Z,13.03
2023-03-30T04:31:00.020Z,13.50
2023-03-30T04:37:18.145Z,13.23
2023-03-30T04:43:23.007Z,12.70
2023-03-30T04:49:54.936Z,13.03
2023-03-30T04:56:07.446Z,11.90
2023-03-30T05:02:23.222Z,12.10
2023-03-30T05:08:41.846Z,11.73
2023-03-30T05:14:53.986Z,12.07
2023-03-30T05:21:00.379Z,12.10
2023-03-30T05:27:18.763Z,11.70
2023-03-30T05:33:31.457Z,11.67
2023-03-30T05:39:46.054Z,11.77
2023-03-30T05:45:57.682Z,10.10
2023-03-30T05:51:58.440Z,10.20
2023-03-30T05:58:19.024Z,10.50
2023-03-30T06:04:47.955Z,10.23
2023-03-30T06:10:43.086Z,9.93
2023-03-30T06:16:39.887Z,9.47
2023-03-30T06:22:34.974Z,9.27
2023-03-30T06:28:38.259Z,9.77
2023-03-30T06:34:33.662Z,8.83
2023-03-30T06:40:27.483Z,9.50
2023-03-30T06:46:22.101Z,9.03
2023-03-30T06:52:18.442Z,8.47
2023-03-30T06:58:11.646Z,7.70
2023-03-30T07:04:05.479Z,8.83
2023-03-30T07:10:17.161Z,7.77
2023-03-30T07:16:12.005Z,6.80
2023-03-30T07:22:05.038Z,6.83
2023-03-30T07:28:00.028Z,6.97
2023-03-30T07:33:53.477Z,7.33
2023-03-30T07:39:50.725Z,6.50
2023-03-30T07:45:45.370Z,5.73
2023-03-30T07:51:44.792Z,6.63
2023-03-30T07:57:45.965Z,5.17
2023-03-30T08:03:41.223Z,5.37
2023-03-30T08:09:36.347Z,5.00
2023-03-30T08:15:29.423Z,5.67
2023-03-30T08:21:25.632Z,4.70
2023-03-30T08:27:18.670Z,5.10
2023-03-30T08:33:11.738Z,5.30
2023-03-30T08:39:06.765Z,4.30
2023-03-30T08:45:05.128Z,4.60
2023-03-30T08:51:01.104Z,4.53
2023-03-30T08:57:04.872Z,4.20
2023-03-30T09:03:07.916Z,3.70
2023-03-30T09:09:01.401Z,3.70
2023-03-30T09:14:59.285Z,3.73
2023-03-30T09:20:54.083Z,3.80
2023-03-30T09:26:53.383Z,4.20
2023-03-30T09:32:58.356Z,3.70
2023-03-30T09:38:52.565Z,3.97
2023-03-30T09:44:49.243Z,3.83
2023-03-30T09:50:46.666Z,3.87
2023-03-30T09:56:47.324Z,3.40
2023-03-30T10:02:40.397Z,3.20
2023-03-30T10:08:39.252Z,2.90
2023-03-30T10:14:35.036Z,2.83
2023-03-30T10:20:31.189Z,3.10
2023-03-30T10:26:31.019Z,2.67
2023-03-30T10:32:30.515Z,2.90
2023-03-30T10:38:24.197Z,2.83
2023-03-30T10:44:24.696Z,2.43
2023-03-30T10:50:26.746Z,2.40
2023-03-30T10:56:28.860Z,1.87
2023-03-30T11:02:46.526Z,2.10
2023-03-30T11:08:43.512Z,1.77
2023-03-30T11:14:42.628Z,2.10
2023-03-30T11:20:42.714Z,1.80
2023-03-30T11:26:39.840Z,2.03
2023-03-30T11:32:39.946Z,1.83
2023-03-30T11:38:42.482Z,2.20
2023-03-30T11:44:36.550Z,1.93
2023-03-30T11:50:45.706Z,2.40
2023-03-30T11:56:47.152Z,1.93
2023-03-30T12:02:50.758Z,1.33
2023-03-30T12:09:16.546Z,1.17
2023-03-30T12:15:34.615Z,1.70
2023-03-30T12:21:32.736Z,1.30
2023-03-30T12:27:27.552Z,2.00
2023-03-30T12:33:29.154Z,1.17
2023-03-30T12:39:31.612Z,1.33
2023-03-30T12:45:32.686Z,1.53
2023-03-30T12:51:45.728Z,1.90
2023-03-30T12:57:49.908Z,2.77
2023-03-30T13:03:50.410Z,2.70
2023-03-30T13:09:58.158Z,2.43
2023-03-30T13:15:52.968Z,2.10
2023-03-30T13:21:51.245Z,2.40
2023-03-30T13:27:45.656Z,2.10
2023-03-30T13:33:43.757Z,2.43
2023-03-30T13:39:42.621Z,2.17
2023-03-30T13:45:47.562Z,2.30
2023-03-30T13:51:42.412Z,1.83
2023-03-30T13:57:37.847Z,1.80
2023-03-30T14:03:36.608Z,1.87
2023-03-30T14:09:29.702Z,1.80
2023-03-30T14:15:25.224Z,1.73
2023-03-30T14:21:21.864Z,2.13
2023-03-30T14:27:16.589Z,1.43
2023-03-30T14:33:11.918Z,1.53
2023-03-30T14:39:10.307Z,1.63
2023-03-30T14:45:04.479Z,1.40
2023-03-30T14:50:58.266Z,1.87
2023-03-30T14:56:59.152Z,1.90
2023-03-30T15:02:55.212Z,1.80
2023-03-30T15:08:48.967Z,1.50
2023-03-30T15:14:43.815Z,1.80
2023-03-30T15:20:37.310Z,1.53
2023-03-30T15:26:30.969Z,1.67
2023-03-30T15:32:33.273Z,1.70
2023-03-30T15:38:32.285Z,1.73
2023-03-30T15:44:25.703Z,1.63
2023-03-30T15:50:21.678Z,1.80
2023-03-30T15:56:21.824Z,2.40
2023-03-30T16:02:17.570Z,1.30
2023-03-30T16:08:11.858Z,1.60
2023-03-30T16:14:07.532Z,1.80
2023-03-30T16:20:01.454Z,2.17
2023-03-30T16:25:56.260Z,1.90
2023-03-30T16:31:49.939Z,1.70
2023-03-30T16:37:43.578Z,2.40
2023-03-30T16:43:38.350Z,2.37
2023-03-30T16:49:31.307Z,2.57
2023-03-30T16:55:24.869Z,3.00
2023-03-30T17:01:19.213Z,2.73
2023-03-30T17:07:12.218Z,3.70
2023-03-30T17:13:05.826Z,2.87
2023-03-30T17:19:00.917Z,2.70
2023-03-30T17:24:54.396Z,2.77
2023-03-30T17:30:47.831Z,2.67
2023-03-30T17:36:42.642Z,2.53
2023-03-30T17:42:35.997Z,2.80
2023-03-30T17:48:29.551Z,3.50
2023-03-30T17:54:25.993Z,4.00
2023-03-30T18:00:31.493Z,3.43
2023-03-30T18:06:25.527Z,2.90
2023-03-30T18:12:19.822Z,2.83
2023-03-30T18:18:14.187Z,5.43
2023-03-30T18:24:07.925Z,2.57
2023-03-30T18:30:02.704Z,3.17
2023-03-30T18:35:57.172Z,3.17
2023-03-30T18:41:50.613Z,2.50
2023-03-30T18:47:45.728Z,2.63
2023-03-30T18:53:38.678Z,2.63
2023-03-30T18:59:32.064Z,3.70
2023-03-30T19:05:28.401Z,4.00
2023-03-30T19:11:24.820Z,3.47
2023-03-30T19:17:17.797Z,4.43
2023-03-30T19:23:14.583Z,2.63
2023-03-30T19:29:08.069Z,2.90
2023-03-30T19:35:01.473Z,2.40
2023-03-30T19:41:01.358Z,2.57
2023-03-30T19:46:54.784Z,2.90
2023-03-30T19:52:50.301Z,2.83
2023-03-30T19:58:45.072Z,2.80
2023-03-30T20:04:38.511Z,3.23
2023-03-30T20:10:31.995Z,2.50
2023-03-30T20:16:26.363Z,2.77
2023-03-30T20:22:19.771Z,2.80
2023-03-30T20:28:13.567Z,2.80
2023-03-30T20:34:10.415Z,4.10
2023-03-30T20:40:10.182Z,4.43
2023-03-30T20:46:03.765Z,3.20
2023-03-30T20:52:01.218Z,2.70
2023-03-30T20:57:54.184Z,3.40
2023-03-30T21:03:50.371Z,3.30
2023-03-30T21:09:46.061Z,2.67
2023-03-30T21:15:39.444Z,3.33
2023-03-30T21:21:34.121Z,3.30
2023-03-30T21:27:29.297Z,3.93
2023-03-30T21:33:22.456Z,3.87
2023-03-30T21:39:15.876Z,3.47
2023-03-30T21:45:12.376Z,3.63
2023-03-30T21:51:08.392Z,3.17
2023-03-30T21:57:01.788Z,3.70
2023-03-30T22:02:56.639Z,3.90
2023-03-30T22:08:50.151Z,4.50
2023-03-30T22:14:43.551Z,4.50
2023-03-30T22:20:41.641Z,5.10
2023-03-30T22:26:35.619Z,4.67
2023-03-30T22:32:29.137Z,5.00
2023-03-30T22:38:24.078Z,5.87
2023-03-30T22:44:17.759Z,5.60
2023-03-30T22:50:11.668Z,5.97
2023-03-30T22:56:07.624Z,6.10
2023-03-30T23:02:01.336Z,3.70
2023-03-30T23:07:54.740Z,3.13
2023-03-30T23:13:49.136Z,3.67
2023-03-30T23:19:45.983Z,3.40
2023-03-30T23:25:39.780Z,3.50
2023-03-30T23:31:35.137Z,3.03
2023-03-30T23:37:30.681Z,3.87
2023-03-30T23:43:24.167Z,3.20
2023-03-30T23:49:19.547Z,4.30
2023-03-30T23:55:12.587Z,3.30
